createdAt,value
2022-12-24T00:00:14.839Z,57.15
2022-12-24T00:02:41.465Z,57.30
2022-12-24T00:07:33.922Z,79.68
2022-12-24T00:10:00.577Z,144.82
2022-12-24T00:12:27.451Z,176.68
2022-12-24T00:14:54.079Z,185.40
2022-12-24T00:17:20.604Z,221.13
2022-12-24T00:19:47.174Z,195.18
2022-12-24T00:22:13.854Z,213.75
2022-12-24T00:24:40.477Z,209.40
2022-12-24T00:27:07.092Z,236.27
2022-12-24T00:29:33.921Z,211.35
2022-12-24T00:32:00.803Z,167.43
2022-12-24T00:34:29.560Z,135.48
2022-12-24T00:36:56.088Z,117.35
2022-12-24T00:39:22.705Z,99.28
2022-12-24T00:41:49.277Z,98.15
2022-12-24T00:44:15.928Z,88.10
2022-12-24T00:46:42.791Z,143.52
2022-12-24T00:49:10.943Z,157.77
2022-12-24T00:51:37.569Z,129.38
2022-12-24T00:54:04.502Z,250.65
2022-12-24T00:56:31.145Z,157.07
2022-12-24T00:58:57.769Z,129.40
2022-12-24T01:01:25.270Z,126.20
2022-12-24T01:03:52.676Z,512.83
2022-12-24T01:06:23.642Z,718.78
2022-12-24T01:08:51.254Z,482.85
2022-12-24T01:13:42.079Z,459.42
2022-12-24T01:16:18.459Z,335.65
2022-12-24T01:18:45.133Z,313.70
2022-12-24T01:21:11.746Z,276.77
2022-12-24T01:23:38.340Z,238.25
2022-12-24T01:26:05.372Z,271.08
2022-12-24T01:28:32.558Z,212.35
2022-12-24T01:30:59.364Z,196.63
2022-12-24T01:33:29.271Z,246.48
2022-12-24T01:35:55.834Z,169.55
2022-12-24T01:38:22.359Z,150.75
2022-12-24T01:41:09.390Z,170.32
2022-12-24T01:43:36.410Z,191.25
2022-12-24T01:46:02.928Z,152.82
2022-12-24T01:48:47.578Z,145.27
2022-12-24T01:51:26.369Z,121.28
2022-12-24T01:53:58.451Z,115.78
2022-12-24T01:56:27.051Z,105.57
2022-12-24T01:59:00.970Z,108.80
2022-12-24T02:01:27.829Z,112.00
2022-12-24T02:03:54.610Z,102.43
2022-12-24T02:06:22.486Z,104.90
2022-12-24T02:08:49.071Z,93.25
2022-12-24T02:11:19.667Z,95.68
2022-12-24T02:13:55.490Z,94.05
2022-12-24T02:16:46.243Z,105.93
2022-12-24T02:19:47.999Z,108.72
2022-12-24T02:22:24.134Z,111.38
2022-12-24T02:25:20.341Z,118.00
2022-12-24T02:27:57.629Z,99.70
2022-12-24T02:30:28.196Z,74.80
2022-12-24T02:33:05.861Z,88.50
2022-12-24T02:35:37.909Z,86.47
2022-12-24T02:38:17.613Z,94.70
2022-12-24T02:41:08.108Z,94.10
2022-12-24T02:43:38.558Z,109.50
2022-12-24T02:46:13.877Z,92.53
2022-12-24T02:48:43.401Z,91.65
2022-12-24T02:51:10.939Z,83.75
2022-12-24T02:53:38.607Z,80.97
2022-12-24T02:56:34.481Z,92.00
2022-12-24T02:59:20.626Z,67.82
2022-12-24T03:02:13.506Z,75.03
2022-12-24T03:05:01.845Z,80.03
2022-12-24T03:07:36.536Z,91.93
2022-12-24T03:10:06.215Z,73.22
2022-12-24T03:12:42.907Z,69.90
2022-12-24T03:15:13.336Z,64.43
2022-12-24T03:17:42.475Z,69.45
2022-12-24T03:20:12.854Z,69.30
2022-12-24T03:22:40.038Z,72.40
2022-12-24T03:25:07.330Z,64.68
2022-12-24T03:27:34.823Z,56.90
2022-12-24T03:30:03.134Z,55.97
2022-12-24T03:32:31.730Z,50.63
2022-12-24T03:34:58.726Z,121.90
2022-12-24T03:37:25.678Z,82.28
2022-12-24T03:39:52.403Z,149.95
2022-12-24T03:42:19.174Z,87.65
2022-12-24T03:44:46.041Z,82.60
2022-12-24T03:47:12.629Z,96.20
2022-12-24T03:49:39.289Z,110.57
2022-12-24T03:52:05.817Z,122.35
2022-12-24T03:54:32.398Z,177.93
2022-12-24T03:56:58.916Z,118.63
2022-12-24T03:59:25.664Z,97.43
2022-12-24T04:01:52.370Z,93.97
2022-12-24T04:04:19.023Z,139.93
2022-12-24T04:06:45.653Z,105.18
2022-12-24T04:09:12.234Z,79.38
2022-12-24T04:11:38.803Z,86.15
2022-12-24T04:14:05.579Z,76.88
2022-12-24T04:16:32.269Z,73.45
2022-12-24T04:18:58.932Z,64.07
2022-12-24T04:21:25.569Z,56.78
2022-12-24T04:23:52.175Z,72.53
2022-12-24T04:26:18.729Z,58.53
2022-12-24T04:28:45.389Z,51.92
2022-12-24T04:31:17.373Z,55.78
2022-12-24T04:33:46.491Z,55.05
2022-12-24T04:36:16.926Z,45.95
2022-12-24T04:38:44.552Z,42.22
2022-12-24T04:41:24.003Z,48.42
2022-12-24T04:43:52.507Z,65.65
2022-12-24T04:46:22.265Z,55.60
2022-12-24T04:48:51.002Z,78.57
2022-12-24T04:51:18.058Z,64.82
2022-12-24T04:53:45.175Z,92.55
2022-12-24T04:56:17.597Z,99.32
2022-12-24T04:58:44.766Z,76.78
2022-12-24T05:01:18.515Z,79.60
2022-12-24T05:03:45.706Z,106.32
2022-12-24T05:06:14.361Z,81.28
2022-12-24T05:08:41.625Z,91.95
2022-12-24T05:11:08.215Z,86.75
2022-12-24T05:13:44.081Z,114.10
2022-12-24T05:16:14.923Z,86.10
2022-12-24T05:18:41.606Z,111.18
2022-12-24T05:21:10.150Z,93.07
2022-12-24T05:23:56.507Z,77.93
2022-12-24T05:26:29.397Z,97.70
2022-12-24T05:29:01.319Z,83.55
2022-12-24T05:31:29.982Z,52.63
2022-12-24T05:33:56.875Z,75.20
2022-12-24T05:36:24.225Z,59.33
2022-12-24T05:38:51.367Z,90.75
2022-12-24T05:41:18.703Z,87.85
2022-12-24T05:43:45.389Z,96.85
2022-12-24T05:46:14.757Z,83.55
2022-12-24T05:48:41.573Z,75.18
2022-12-24T05:51:12.365Z,56.75
2022-12-24T05:53:39.767Z,48.05
2022-12-24T05:56:12.521Z,70.97
2022-12-24T05:58:41.892Z,85.20
2022-12-24T06:01:09.956Z,69.30
2022-12-24T06:03:37.614Z,60.75
2022-12-24T06:06:06.594Z,67.43
2022-12-24T06:08:34.629Z,57.67
2022-12-24T06:13:31.409Z,60.03
2022-12-24T06:15:59.793Z,58.53
2022-12-24T06:18:26.843Z,55.55
2022-12-24T06:20:55.285Z,46.35
2022-12-24T06:23:23.876Z,56.90
2022-12-24T06:25:51.682Z,66.03
2022-12-24T06:28:18.769Z,82.20
2022-12-24T06:30:50.085Z,60.38
2022-12-24T06:33:17.447Z,65.77
2022-12-24T06:35:47.588Z,67.45
2022-12-24T06:38:15.173Z,60.13
2022-12-24T06:40:44.139Z,61.38
2022-12-24T06:43:12.188Z,55.92
2022-12-24T06:45:39.295Z,60.42
2022-12-24T06:48:06.590Z,51.22
2022-12-24T06:50:34.051Z,52.00
2022-12-24T06:53:00.743Z,52.58
2022-12-24T06:55:27.726Z,48.45
2022-12-24T06:57:54.408Z,45.63
2022-12-24T07:00:21.898Z,48.53
2022-12-24T07:02:48.768Z,44.47
2022-12-24T07:05:15.990Z,43.42
2022-12-24T07:07:45.123Z,46.63
2022-12-24T07:10:14.416Z,43.55
2022-12-24T07:12:41.578Z,48.38
2022-12-24T07:15:08.656Z,47.75
2022-12-24T07:17:35.526Z,39.60
2022-12-24T07:20:02.658Z,40.88
2022-12-24T07:22:29.319Z,41.15
2022-12-24T07:24:55.859Z,44.85
2022-12-24T07:27:22.497Z,45.25
2022-12-24T07:29:49.014Z,45.35
2022-12-24T07:32:15.716Z,44.92
2022-12-24T07:34:42.521Z,42.45
2022-12-24T07:37:09.117Z,44.78
2022-12-24T07:39:35.646Z,44.55
2022-12-24T07:42:02.374Z,42.13
2022-12-24T07:44:28.860Z,47.78
2022-12-24T07:46:55.534Z,45.92
2022-12-24T07:49:22.189Z,47.90
2022-12-24T07:51:48.846Z,49.20
2022-12-24T07:54:15.377Z,42.35
2022-12-24T07:56:43.135Z,40.53
2022-12-24T07:59:13.678Z,34.90
2022-12-24T08:01:40.857Z,30.95
2022-12-24T08:04:07.583Z,26.23
2022-12-24T08:06:34.353Z,23.83
2022-12-24T08:09:00.864Z,26.95
2022-12-24T08:11:27.832Z,22.52
2022-12-24T08:13:54.444Z,25.65
2022-12-24T08:16:21.283Z,25.63
2022-12-24T08:18:47.980Z,23.58
2022-12-24T08:21:15.046Z,23.13
2022-12-24T08:23:41.593Z,20.00
2022-12-24T08:26:10.361Z,21.50
2022-12-24T08:28:36.997Z,24.20
2022-12-24T08:31:03.943Z,19.42
2022-12-24T08:33:30.680Z,18.45
2022-12-24T08:35:57.252Z,16.40
2022-12-24T08:38:24.685Z,16.67
2022-12-24T08:40:53.738Z,15.10
2022-12-24T08:43:20.716Z,14.80
2022-12-24T08:45:49.490Z,14.88
2022-12-24T08:48:16.107Z,11.20
2022-12-24T08:50:42.937Z,12.57
2022-12-24T08:53:10.518Z,10.95
2022-12-24T08:55:37.374Z,9.40
2022-12-24T08:58:04.512Z,8.75
2022-12-24T09:00:31.188Z,7.50
2022-12-24T09:02:58.168Z,7.85
2022-12-24T09:05:26.025Z,7.13
2022-12-24T09:07:53.097Z,7.80
2022-12-24T09:10:20.161Z,8.80
2022-12-24T09:12:47.755Z,5.68
2022-12-24T09:15:14.467Z,8.18
2022-12-24T09:17:41.459Z,7.88
2022-12-24T09:20:09.170Z,5.90
2022-12-24T09:22:39.483Z,6.05
2022-12-24T09:25:07.323Z,6.90
2022-12-24T09:27:33.883Z,5.90
2022-12-24T09:30:00.561Z,6.63
2022-12-24T09:32:27.266Z,7.05
2022-12-24T09:34:54.168Z,8.65
2022-12-24T09:37:20.740Z,8.82
2022-12-24T09:39:47.539Z,5.03
2022-12-24T09:42:32.441Z,5.68
2022-12-24T09:45:12.657Z,5.97
2022-12-24T09:47:49.628Z,4.40
2022-12-24T09:50:41.238Z,6.20
2022-12-24T09:53:14.931Z,5.60
2022-12-24T09:55:48.544Z,11.88
2022-12-24T09:58:25.737Z,7.45
2022-12-24T10:00:53.656Z,6.75
2022-12-24T10:03:20.324Z,5.53
2022-12-24T10:06:12.042Z,7.47
2022-12-24T10:08:47.742Z,5.40
2022-12-24T10:11:22.234Z,5.65
2022-12-24T10:14:14.938Z,5.43
2022-12-24T10:17:02.970Z,5.38
2022-12-24T10:19:58.158Z,4.85
2022-12-24T10:22:28.834Z,5.72
2022-12-24T10:25:29.586Z,6.05
2022-12-24T10:28:01.062Z,6.68
2022-12-24T10:30:28.773Z,6.30
2022-12-24T10:32:55.404Z,6.07
2022-12-24T10:35:34.760Z,5.40
2022-12-24T10:38:02.486Z,5.72
2022-12-24T10:40:40.897Z,5.45
2022-12-24T10:43:16.857Z,5.97
2022-12-24T10:45:47.658Z,4.90
2022-12-24T10:48:25.409Z,5.80
2022-12-24T10:50:58.450Z,4.90
2022-12-24T10:53:33.865Z,7.05
2022-12-24T10:56:04.268Z,4.97
2022-12-24T10:58:31.261Z,4.95
2022-12-24T11:00:58.004Z,5.90
2022-12-24T11:03:33.669Z,6.90
2022-12-24T11:06:14.852Z,4.68
2022-12-24T11:08:43.964Z,5.57
2022-12-24T11:11:13.296Z,6.43
2022-12-24T11:13:44.423Z,5.78
2022-12-24T11:16:21.048Z,5.55
2022-12-24T11:18:52.131Z,6.75
2022-12-24T11:21:30.045Z,6.87
2022-12-24T11:24:12.709Z,5.40
2022-12-24T11:26:42.131Z,6.78
2022-12-24T11:29:08.810Z,6.82
2022-12-24T11:31:37.495Z,6.88
2022-12-24T11:34:26.147Z,7.68
2022-12-24T11:36:56.946Z,7.18
2022-12-24T11:39:25.831Z,8.10
2022-12-24T11:41:54.096Z,7.10
2022-12-24T11:44:28.088Z,6.40
2022-12-24T11:46:58.585Z,6.05
2022-12-24T11:49:31.090Z,7.00
2022-12-24T11:52:22.439Z,6.70
2022-12-24T11:54:54.377Z,8.68
2022-12-24T11:57:28.154Z,7.88
2022-12-24T11:59:54.840Z,8.20
2022-12-24T12:02:35.217Z,7.95
2022-12-24T12:05:11.769Z,7.72
2022-12-24T12:07:39.349Z,7.80
2022-12-24T12:10:19.009Z,8.95
2022-12-24T12:12:50.119Z,10.75
2022-12-24T12:15:22.494Z,9.90
2022-12-24T12:17:57.335Z,11.10
2022-12-24T12:20:34.331Z,9.57
2022-12-24T12:23:13.094Z,11.70
2022-12-24T12:25:45.456Z,10.93
2022-12-24T12:28:22.310Z,11.45
2022-12-24T12:31:16.308Z,10.70
2022-12-24T12:33:49.514Z,10.80
2022-12-24T12:36:21.216Z,13.23
2022-12-24T12:38:48.916Z,12.30
2022-12-24T12:41:34.322Z,11.23
2022-12-24T12:44:19.127Z,11.85
2022-12-24T12:47:24.080Z,12.57
2022-12-24T12:50:12.377Z,12.95
2022-12-24T12:52:45.331Z,13.38
2022-12-24T12:55:36.392Z,15.52
2022-12-24T12:58:25.069Z,15.25
2022-12-24T13:00:57.719Z,14.45
2022-12-24T13:03:45.643Z,13.38
2022-12-24T13:06:33.350Z,16.08
2022-12-24T13:09:26.948Z,16.55
2022-12-24T13:11:53.582Z,15.73
2022-12-24T13:14:35.798Z,15.68
2022-12-24T13:20:16.051Z,13.65
2022-12-24T13:23:02.114Z,14.48
2022-12-24T13:25:34.731Z,14.50
2022-12-24T13:28:24.123Z,13.45
2022-12-24T13:31:24.541Z,15.73
2022-12-24T13:34:00.049Z,15.35
2022-12-24T13:37:06.419Z,14.50
2022-12-24T13:40:09.956Z,15.90
2022-12-24T13:43:06.017Z,15.45
2022-12-24T13:45:38.608Z,15.15
2022-12-24T13:48:25.267Z,14.93
2022-12-24T13:50:57.981Z,15.60
2022-12-24T13:53:32.621Z,16.63
2022-12-24T13:56:16.586Z,15.65
2022-12-24T13:58:47.378Z,17.80
2022-12-24T14:01:34.763Z,18.33
2022-12-24T14:04:04.147Z,16.15
2022-12-24T14:06:33.709Z,16.38
2022-12-24T14:09:14.678Z,18.60
2022-12-24T14:12:07.626Z,16.67
2022-12-24T14:14:37.067Z,20.70
2022-12-24T14:17:15.441Z,17.38
2022-12-24T14:19:45.018Z,17.45
2022-12-24T14:22:17.337Z,16.38
2022-12-24T14:24:50.102Z,18.05
2022-12-24T14:27:19.442Z,18.23
2022-12-24T14:30:05.454Z,17.15
2022-12-24T14:32:37.547Z,15.82
2022-12-24T14:35:07.028Z,17.38
2022-12-24T14:37:34.908Z,18.60
2022-12-24T14:40:01.858Z,16.15
2022-12-24T14:42:49.663Z,15.18
2022-12-24T14:45:50.136Z,15.70
2022-12-24T14:48:51.838Z,14.10
2022-12-24T14:51:46.338Z,14.60
2022-12-24T14:54:41.852Z,16.23
2022-12-24T14:57:11.750Z,14.48
2022-12-24T14:59:58.186Z,13.25
2022-12-24T15:02:31.941Z,14.88
2022-12-24T15:05:07.617Z,19.35
2022-12-24T15:07:41.923Z,14.88
2022-12-24T15:10:27.123Z,12.82
2022-12-24T15:12:56.175Z,13.32
2022-12-24T15:15:23.354Z,13.68
2022-12-24T15:17:50.469Z,16.02
2022-12-24T15:20:20.239Z,18.88
2022-12-24T15:22:50.298Z,15.88
2022-12-24T15:25:37.662Z,31.92
2022-12-24T15:28:17.261Z,43.55
2022-12-24T15:30:43.962Z,57.53
2022-12-24T15:33:13.608Z,97.85
2022-12-24T15:35:49.421Z,81.15
2022-12-24T15:38:40.724Z,69.85
2022-12-24T15:41:26.607Z,56.47
2022-12-24T15:43:55.339Z,36.60
2022-12-24T15:46:27.938Z,24.73
2022-12-24T15:48:57.645Z,27.85
2022-12-24T15:51:28.692Z,23.63
2022-12-24T15:53:59.688Z,21.80
2022-12-24T15:56:38.875Z,26.20
2022-12-24T15:59:38.058Z,25.85
2022-12-24T16:02:27.356Z,19.63
2022-12-24T16:04:54.114Z,22.15
2022-12-24T16:07:25.377Z,21.83
2022-12-24T16:09:52.363Z,18.77
2022-12-24T16:12:23.178Z,18.67
2022-12-24T16:14:57.476Z,19.05
2022-12-24T16:17:32.759Z,18.77
2022-12-24T16:20:05.722Z,21.00
2022-12-24T16:22:33.165Z,23.25
2022-12-24T16:25:00.400Z,22.40
2022-12-24T16:27:27.668Z,20.95
2022-12-24T16:29:54.746Z,21.42
2022-12-24T16:32:36.541Z,21.88
2022-12-24T16:35:05.600Z,21.50
2022-12-24T16:37:32.271Z,21.50
2022-12-24T16:40:00.106Z,19.90
2022-12-24T16:42:45.406Z,15.95
2022-12-24T16:45:12.466Z,15.90
2022-12-24T16:47:43.241Z,14.10
2022-12-24T16:50:16.183Z,15.65
2022-12-24T16:52:43.032Z,14.52
2022-12-24T16:55:13.165Z,12.85
2022-12-24T16:57:43.704Z,16.05
2022-12-24T17:00:19.975Z,14.07
2022-12-24T17:02:47.689Z,14.40
2022-12-24T17:05:15.484Z,15.82
2022-12-24T17:07:43.987Z,16.50
2022-12-24T17:10:12.941Z,15.73
2022-12-24T17:12:39.901Z,14.35
2022-12-24T17:15:07.116Z,15.68
2022-12-24T17:17:34.113Z,16.27
2022-12-24T17:20:00.720Z,15.45
2022-12-24T17:22:27.649Z,25.05
2022-12-24T17:24:55.215Z,19.85
2022-12-24T17:27:22.358Z,17.45
2022-12-24T17:29:48.994Z,17.30
2022-12-24T17:32:16.094Z,20.25
2022-12-24T17:34:42.649Z,21.27
2022-12-24T17:37:09.316Z,20.65
2022-12-24T17:39:36.067Z,37.28
2022-12-24T17:42:03.050Z,25.95
2022-12-24T17:44:30.505Z,41.78
2022-12-24T17:46:57.385Z,28.20
2022-12-24T17:49:24.208Z,38.95
2022-12-24T17:51:50.806Z,18.65
2022-12-24T17:54:17.426Z,23.00
2022-12-24T17:56:44.147Z,28.13
2022-12-24T17:59:10.985Z,24.90
2022-12-24T18:01:37.695Z,29.88
2022-12-24T18:04:04.838Z,26.52
2022-12-24T18:06:31.649Z,20.70
2022-12-24T18:08:58.275Z,22.65
2022-12-24T18:11:28.304Z,20.73
2022-12-24T18:13:56.409Z,40.20
2022-12-24T18:16:27.917Z,23.83
2022-12-24T18:18:54.797Z,28.77
2022-12-24T18:21:23.906Z,20.77
2022-12-24T18:23:52.265Z,28.23
2022-12-24T18:26:20.106Z,24.50
2022-12-24T18:28:47.400Z,34.13
2022-12-24T18:31:17.143Z,26.30
2022-12-24T18:33:45.757Z,35.22
2022-12-24T18:36:13.027Z,52.55
2022-12-24T18:38:40.487Z,36.20
2022-12-24T18:41:13.039Z,44.92
2022-12-24T18:43:41.310Z,50.13
2022-12-24T18:46:16.877Z,75.72
2022-12-24T18:48:43.763Z,50.60
2022-12-24T18:51:11.938Z,103.93
2022-12-24T18:53:38.830Z,70.43
2022-12-24T18:56:08.546Z,103.38
2022-12-24T18:58:37.610Z,50.75
2022-12-24T19:01:19.380Z,27.92
2022-12-24T19:03:47.509Z,90.63
2022-12-24T19:06:14.072Z,185.63
2022-12-24T19:11:29.217Z,45.45
2022-12-24T19:13:57.940Z,142.73
2022-12-24T19:16:25.988Z,46.75
2022-12-24T19:18:52.690Z,28.33
2022-12-24T19:21:19.431Z,26.70
2022-12-24T19:23:46.695Z,55.20
2022-12-24T19:26:15.563Z,33.03
2022-12-24T19:28:42.264Z,42.25
2022-12-24T19:31:14.887Z,64.68
2022-12-24T19:33:44.293Z,69.47
2022-12-24T19:36:20.651Z,106.57
2022-12-24T19:38:47.482Z,39.05
2022-12-24T19:41:16.819Z,37.75
2022-12-24T19:43:46.699Z,30.90
2022-12-24T19:46:16.084Z,31.17
2022-12-24T19:48:43.184Z,29.95
2022-12-24T19:51:12.256Z,28.05
2022-12-24T19:53:39.677Z,33.00
2022-12-24T19:56:07.172Z,94.20
2022-12-24T19:58:34.467Z,119.78
2022-12-24T20:01:15.679Z,216.68
2022-12-24T20:03:44.689Z,238.40
2022-12-24T20:06:12.751Z,69.03
2022-12-24T20:08:39.706Z,47.63
2022-12-24T20:11:08.514Z,31.08
2022-12-24T20:13:36.014Z,30.33
2022-12-24T20:16:11.167Z,26.52
2022-12-24T20:18:38.105Z,32.17
2022-12-24T20:21:07.795Z,35.40
2022-12-24T20:23:36.966Z,29.38
2022-12-24T20:26:05.769Z,65.20
2022-12-24T20:28:35.996Z,34.53
2022-12-24T20:31:16.806Z,38.72
2022-12-24T20:33:45.003Z,27.52
2022-12-24T20:36:14.364Z,25.00
2022-12-24T20:38:40.952Z,24.88
2022-12-24T20:41:09.793Z,24.63
2022-12-24T20:43:47.449Z,26.60
2022-12-24T20:46:16.824Z,24.58
2022-12-24T20:48:43.492Z,26.90
2022-12-24T20:51:20.967Z,23.38
2022-12-24T20:53:51.623Z,25.25
2022-12-24T20:56:18.675Z,26.27
2022-12-24T20:58:46.450Z,25.02
2022-12-24T21:01:18.020Z,26.15
2022-12-24T21:03:45.505Z,28.00
2022-12-24T21:06:12.794Z,26.95
2022-12-24T21:08:39.493Z,25.02
2022-12-24T21:11:24.586Z,31.70
2022-12-24T21:13:51.263Z,24.00
2022-12-24T21:16:17.913Z,26.40
2022-12-24T21:18:44.593Z,24.63
2022-12-24T21:21:11.340Z,26.95
2022-12-24T21:23:38.067Z,25.90
2022-12-24T21:26:05.476Z,27.15
2022-12-24T21:28:34.992Z,32.30
2022-12-24T21:31:01.715Z,32.75
2022-12-24T21:33:30.947Z,30.10
2022-12-24T21:36:01.509Z,33.03
2022-12-24T21:38:28.323Z,36.33
2022-12-24T21:41:28.295Z,31.77
2022-12-24T21:43:55.040Z,31.92
2022-12-24T21:46:24.938Z,31.50
2022-12-24T21:49:13.685Z,34.05
2022-12-24T21:51:41.376Z,35.30
2022-12-24T21:54:23.515Z,36.90
2022-12-24T21:57:09.843Z,33.92
2022-12-24T21:59:36.592Z,35.58
2022-12-24T22:02:03.525Z,35.58
2022-12-24T22:04:32.160Z,34.38
2022-12-24T22:07:17.913Z,34.78
2022-12-24T22:10:03.227Z,32.47
2022-12-24T22:12:32.187Z,30.52
2022-12-24T22:14:59.180Z,30.02
2022-12-24T22:17:26.817Z,32.55
2022-12-24T22:19:56.644Z,35.83
2022-12-24T22:22:24.765Z,32.20
2022-12-24T22:24:51.424Z,31.15
2022-12-24T22:27:18.236Z,29.58
2022-12-24T22:29:44.838Z,28.85
2022-12-24T22:32:11.514Z,25.48
2022-12-24T22:34:38.138Z,27.25
2022-12-24T22:37:04.794Z,27.23
2022-12-24T22:39:31.332Z,25.38
2022-12-24T22:41:58.374Z,23.30
2022-12-24T22:44:25.321Z,24.40
2022-12-24T22:46:51.942Z,22.25
2022-12-24T22:49:18.691Z,21.33
2022-12-24T22:51:45.387Z,21.05
2022-12-24T22:54:14.906Z,21.85
2022-12-24T22:56:41.988Z,20.08
2022-12-24T22:59:12.328Z,22.08
2022-12-24T23:01:41.056Z,20.25
2022-12-24T23:04:07.912Z,21.90
2022-12-24T23:06:35.623Z,21.83
2022-12-24T23:09:05.996Z,20.75
2022-12-24T23:11:32.983Z,20.88
2022-12-24T23:14:18.184Z,22.00
2022-12-24T23:16:44.879Z,22.48
2022-12-24T23:19:12.904Z,21.90
2022-12-24T23:21:39.552Z,22.45
2022-12-24T23:24:06.419Z,22.27
2022-12-24T23:26:33.119Z,23.73
2022-12-24T23:28:59.749Z,21.90
2022-12-24T23:31:27.015Z,23.80
2022-12-24T23:33:53.747Z,20.70
2022-12-24T23:36:21.145Z,21.25
2022-12-24T23:38:48.369Z,24.83
2022-12-24T23:41:17.842Z,21.25
2022-12-24T23:43:45.156Z,22.10
2022-12-24T23:46:16.597Z,23.25
2022-12-24T23:48:43.654Z,20.97
2022-12-24T23:51:13.894Z,20.85
2022-12-24T23:53:40.937Z,23.25
2022-12-24T23:56:10.820Z,21.23
2022-12-24T23:58:38.573Z,20.77
